Aeroporto :
LOGIN :

Iscrizione | Disclaimer

   EN    FR    IT 

 










Sommario :    VFR   VFR Marginale   IFR   IFR Intensivo   IFR Molto Intensivo
Visibilità : 
Base nubi : 
>= 8 km
>= 3000ft
5 / 8 km
1000 / 3000 ft
1500m / 5 km
500 / 1000 ft
800 / 1500m
200 / 500 ft
< 800m
< 200 ft
Simboli :   Temporali  Nebbia  Neve Forte  Precipitazioni Forti  Vento > 20 kt
SIGMETs :   Varie  Temporali  Ghiacco  Turbolenza  Onda orograficha  Ceneri Vulcaniche






- Altitudine del aeroporto : 138 ft
- Codice IATA : BIO


LEBB - Bilbao

ULTIMO METAR :
  • 171430Z 26007KT 220V290 9999 FEW030 SCT042 BKN056 12/08 Q1008 TEMPO RA

METARs OBSOLETI :
  • 171400Z 25007KT 210V300 9999 -RA FEW031 SCT042 BKN050 12/08 Q1008 TEMPO RA
  • 171330Z 26006KT 210V290 9999 FEW026 SCT040 BKN052 11/09 Q1008 RERA TEMPO RA
  • 171324Z 26007KT 230V320 9999 FEW026 SCT040 BKN052 11/09 Q1008 RERA TEMPO RA
  • 171300Z 24005KT 190V280 9999 -RA FEW026 SCT034 BKN046 11/09 Q1009 TEMPO RA
  • 171230Z 23003KT 130V290 8000 -RA FEW026 SCT034 BKN046 10/08 Q1009 RESHRA TEMPO RA
  • 171217Z VRB04KT 9999 -RA FEW026 SCT036 BKN048 10/08 Q1009 RESHRA TEMPO RA
  • 171206Z 22009KT 160V250 7000 SHRA SCT028TCU BKN038 10/08 Q1009 NOSIG

TAF TAF LEBB
Valido dal 17 a 12 ore il 18 a 12 ore UTC


171100Z 1712/1812 22008KT 9999 SCT020 BKN030 TX12/1713Z TN07/1804Z
TEMPO 1712/1724 3000 RA SHRA BKN020TCU
TEMPO 1714/1717 27015G25KT
PROB30
TEMPO 1715/1721 TS SCT025CB
PROB40
TEMPO 1716/1722 2000 +RA
BECMG 1717/1721 VRB05KT
TEMPO 1804/1811 3000 RA



MetMap, La meteo Aeronautica in un colpo d'occhio ! - Copyright ORBIFLY Dicembre 2007 - Disclaimer

ORBIFLY MET'MAP TEAM :

Programmazione e sviluppo : Alexandra Zaïnal
Concezione e sviluppo : Baudouin d'Aumeries
Co-Programmazione e sviluppo : Marc-Olivier Méhu
Supporto tecnico e logistico : Manuel Goepfert
Aiuto per la traduzione : Arnaldo La Scala

Contatto : metmap@orbifly.com




FONTI E CREDITI :

   NOAA